Time;durP1;ratioP1;P1;durP2;ratioP2;P2;SDS_P1;SDS_P2;PMS_P1;PMS_P2;Temp;Humidity;BMP_temperature;BMP_pressure;BME280_temperature;BME280_humidity;BME280_pressure;Samples;Min_cycle;Max_cycle;Signal;HPM_P1;HPM_P2
2023/07/25 00:01:10;;;;;;;11.13;3.35;;;14.00;99.90;;;;;;4963781;28;20043;-67
2023/07/25 00:03:35;;;;;;;8.02;2.85;;;14.40;99.90;;;;;;4952781;28;20048;-67
2023/07/25 00:06:03;;;;;;;10.13;2.67;;;14.00;99.90;;;;;;4959635;28;20047;-67
2023/07/25 00:08:30;;;;;;;9.38;2.63;;;13.80;1.00;;;;;;4959148;28;20041;-67
2023/07/25 00:10:55;;;;;;;10.65;2.90;;;14.00;1.00;;;;;;4968973;28;20043;-66
2023/07/25 00:13:21;;;;;;;11.30;3.05;;;14.40;1.00;;;;;;4952300;28;20061;-68
2023/07/25 00:15:47;;;;;;;10.88;3.25;;;;;;;;;;4965871;28;20047;-68
2023/07/25 00:18:12;;;;;;;9.57;2.70;;;14.40;1.00;;;;;;4959583;28;20069;-68
2023/07/25 00:20:38;;;;;;;10.98;2.70;;;14.60;1.00;;;;;;4960654;28;20036;-68
2023/07/25 00:23:04;;;;;;;10.20;2.65;;;14.60;1.00;;;;;;4960205;28;20397;-67
2023/07/25 00:25:29;;;;;;;8.73;2.85;;;14.50;1.00;;;;;;4964114;28;20042;-67
2023/07/25 00:27:55;;;;;;;8.15;2.60;;;13.70;1.00;;;;;;4967719;28;20062;-67
2023/07/25 00:30:21;;;;;;;9.25;3.03;;;14.40;1.00;;;;;;4958988;28;20424;-67
2023/07/25 00:32:46;;;;;;;8.10;2.90;;;14.30;1.00;;;;;;4968173;28;20444;-67
2023/07/25 00:35:12;;;;;;;10.27;2.83;;;14.00;1.00;;;;;;4958894;28;20146;-67
2023/07/25 00:37:38;;;;;;;12.75;3.28;;;13.70;1.00;;;;;;4971362;28;20093;-67
2023/07/25 00:40:04;;;;;;;11.10;3.33;;;14.10;1.00;;;;;;4962033;28;20115;-67
2023/07/25 00:42:29;;;;;;;9.45;2.90;;;14.10;1.00;;;;;;4957145;28;20109;-67
2023/07/25 00:44:55;;;;;;;8.00;2.97;;;14.30;1.00;;;;;;4948952;28;20074;-67
2023/07/25 00:47:22;;;;;;;13.55;2.72;;;13.80;1.00;;;;;;4953500;28;20501;-68
2023/07/25 00:49:49;;;;;;;10.85;3.00;;;14.00;1.00;;;;;;4953522;28;20513;-68
2023/07/25 00:52:15;;;;;;;9.95;2.83;;;13.80;1.00;;;;;;4963456;28;20054;-68
2023/07/25 00:54:49;;;;;;;13.23;2.53;;;14.40;1.00;;;;;;4966713;28;20039;-68
2023/07/25 00:57:19;;;;;;;10.07;2.40;;;13.90;1.00;;;;;;4966390;28;20531;-68
2023/07/25 00:59:46;;;;;;;14.40;3.10;;;13.80;1.00;;;;;;4959421;28;20122;-68
2023/07/25 01:02:13;;;;;;;6.65;2.38;;;14.10;1.00;;;;;;4958428;28;20090;-68
2023/07/25 01:04:40;;;;;;;13.57;3.10;;;14.10;1.00;;;;;;4969531;28;20536;-66
2023/07/25 01:07:06;;;;;;;9.07;2.88;;;14.80;1.00;;;;;;4961253;28;20114;-67
2023/07/25 01:09:43;;;;;;;10.68;3.05;;;14.50;1.00;;;;;;4959965;28;20653;-67
2023/07/25 01:12:10;;;;;;;7.80;3.05;;;14.10;3.20;;;;;;4965619;28;20055;-68
2023/07/25 01:14:37;;;;;;;8.82;2.40;;;14.40;4.40;;;;;;4963433;28;20035;-67
2023/07/25 01:17:11;;;;;;;8.15;2.85;;;13.50;1.00;;;;;;4952207;28;20047;-67
2023/07/25 01:19:39;;;;;;;11.80;3.30;;;13.70;1.00;;;;;;4951110;28;20032;-68
2023/07/25 01:22:06;;;;;;;9.85;3.20;;;14.00;10.10;;;;;;4952341;28;20094;-67
2023/07/25 01:24:32;;;;;;;7.20;3.00;;;13.80;1.00;;;;;;4955398;28;20046;-67
2023/07/25 01:26:58;;;;;;;9.52;3.30;;;14.30;1.00;;;;;;4951135;28;20405;-68
2023/07/25 01:29:23;;;;;;;11.23;3.38;;;14.30;1.00;;;;;;4951841;28;20067;-67
2023/07/25 01:31:49;;;;;;;8.35;2.65;;;;;;;;;;4955160;28;20062;-68
2023/07/25 01:34:15;;;;;;;9.90;3.33;;;13.80;1.00;;;;;;4959166;28;20042;-68
2023/07/25 01:36:41;;;;;;;7.68;3.00;;;14.40;1.00;;;;;;4951422;28;20472;-68
2023/07/25 01:39:07;;;;;;;12.90;3.45;;;14.60;1.00;;;;;;4957593;28;20516;-68
2023/07/25 01:41:33;;;;;;;12.45;3.00;;;13.80;1.00;;;;;;4959638;28;20567;-67
2023/07/25 01:43:58;;;;;;;10.70;3.40;;;14.30;1.00;;;;;;4957980;28;20039;-67
2023/07/25 01:46:24;;;;;;;11.20;2.65;;;14.10;1.00;;;;;;4957176;28;20411;-68
2023/07/25 01:48:50;;;;;;;8.57;3.15;;;14.10;1.00;;;;;;4954681;28;20511;-67
2023/07/25 01:51:15;;;;;;;7.28;2.67;;;14.00;1.00;;;;;;4960101;28;20182;-67
2023/07/25 01:53:41;;;;;;;9.98;3.13;;;14.00;1.00;;;;;;4962720;28;20043;-68
2023/07/25 01:56:07;;;;;;;12.85;3.15;;;14.10;1.00;;;;;;4954918;28;20038;-68
2023/07/25 01:58:32;;;;;;;8.98;2.70;;;14.40;1.00;;;;;;4960272;28;20090;-68
2023/07/25 02:00:59;;;;;;;9.85;2.60;;;14.60;1.00;;;;;;4951549;28;20505;-68
2023/07/25 02:03:26;;;;;;;11.18;2.70;;;14.60;1.00;;;;;;4958221;28;20031;-68
2023/07/25 02:05:52;;;;;;;7.15;2.40;;;14.10;1.00;;;;;;4965175;28;20125;-68
2023/07/25 02:08:17;;;;;;;8.50;3.05;;;14.00;1.00;;;;;;4953029;28;20122;-68
2023/07/25 02:10:43;;;;;;;10.48;3.08;;;13.60;1.00;;;;;;4952690;28;20042;-68
2023/07/25 02:13:08;;;;;;;7.45;2.50;;;13.70;1.00;;;;;;4955675;28;20400;-68
2023/07/25 02:15:36;;;;;;;7.53;2.58;;;14.30;99.90;;;;;;4955145;28;20112;-67
2023/07/25 02:18:02;;;;;;;7.95;2.72;;;14.20;1.00;;;;;;4946131;28;20509;-68
2023/07/25 02:20:31;;;;;;;8.48;2.50;;;13.50;99.90;;;;;;4950346;28;20035;-68
2023/07/25 02:22:57;;;;;;;7.22;2.40;;;13.60;99.90;;;;;;4957603;28;20046;-67
2023/07/25 02:25:25;;;;;;;9.80;2.38;;;13.60;1.00;;;;;;4955169;28;20074;-68
2023/07/25 02:27:51;;;;;;;7.00;2.38;;;14.10;99.90;;;;;;4954453;28;20202;-66
2023/07/25 02:30:16;;;;;;;6.90;2.30;;;13.80;99.90;;;;;;4957167;28;20179;-68
2023/07/25 02:32:42;;;;;;;8.45;2.40;;;13.60;99.90;;;;;;4955255;28;20043;-68
2023/07/25 02:35:08;;;;;;;7.80;2.20;;;14.10;99.90;;;;;;4947017;28;20075;-68
2023/07/25 02:37:33;;;;;;;10.20;2.65;;;14.00;99.90;;;;;;4950715;28;20040;-67
2023/07/25 02:40:00;;;;;;;9.00;2.45;;;;;;;;;;4953798;28;20039;-68
2023/07/25 02:42:25;;;;;;;12.93;2.63;;;14.10;99.90;;;;;;4956735;28;20035;-68
2023/07/25 02:44:51;;;;;;;10.50;2.53;;;13.60;99.90;;;;;;4954564;28;20388;-68
2023/07/25 02:47:16;;;;;;;10.60;2.55;;;13.10;99.90;;;;;;4951667;28;20047;-68
2023/07/25 02:49:42;;;;;;;6.85;2.10;;;14.00;99.90;;;;;;4943640;28;20529;-68
2023/07/25 02:52:08;;;;;;;7.45;2.13;;;13.80;99.90;;;;;;4934218;28;20047;-67
2023/07/25 02:54:34;;;;;;;7.93;2.30;;;13.70;99.90;;;;;;4952215;28;20043;-68
2023/07/25 02:56:59;;;;;;;7.30;2.50;;;13.60;99.90;;;;;;4951390;28;20064;-68
2023/07/25 02:59:25;;;;;;;9.25;2.75;;;13.80;99.90;;;;;;4950887;28;20039;-68
2023/07/25 03:01:51;;;;;;;7.03;2.20;;;13.60;99.90;;;;;;4955908;28;20039;-68
2023/07/25 03:04:16;;;;;;;7.43;2.20;;;13.80;99.90;;;;;;4953352;28;20105;-68
2023/07/25 03:06:42;;;;;;;7.95;2.30;;;13.70;99.90;;;;;;4956781;28;20507;-68
2023/07/25 03:09:08;;;;;;;7.90;2.72;;;13.50;1.00;;;;;;4947737;28;20043;-68
2023/07/25 03:11:33;;;;;;;9.98;2.30;;;13.70;99.90;;;;;;4951305;28;20047;-68
2023/07/25 03:13:59;;;;;;;9.10;2.72;;;12.90;99.90;;;;;;4950344;28;20062;-68
2023/07/25 03:16:25;;;;;;;12.13;2.67;;;13.50;99.90;;;;;;4965183;28;20441;-68
2023/07/25 03:18:51;;;;;;;9.90;3.15;;;13.20;99.90;;;;;;4951774;28;20059;-68
2023/07/25 03:21:16;;;;;;;11.00;3.58;;;13.20;99.90;;;;;;4958704;28;20042;-68
2023/07/25 03:23:42;;;;;;;8.55;2.90;;;13.50;99.90;;;;;;4950700;28;20039;-68
2023/07/25 03:26:08;;;;;;;9.98;2.47;;;13.60;99.90;;;;;;4947381;28;20090;-68
2023/07/25 03:28:33;;;;;;;9.15;2.53;;;13.40;99.90;;;;;;4954732;28;20046;-68
2023/07/25 03:31:00;;;;;;;6.53;2.25;;;13.30;1.00;;;;;;4959345;28;20093;-69
2023/07/25 03:33:27;;;;;;;9.98;2.42;;;12.90;1.00;;;;;;4953832;28;20061;-68
2023/07/25 03:35:54;;;;;;;8.15;2.50;;;13.60;1.00;;;;;;4946733;28;20051;-68
2023/07/25 03:38:19;;;;;;;7.47;2.50;;;12.70;1.00;;;;;;4947770;28;20079;-69
2023/07/25 03:40:45;;;;;;;6.43;1.80;;;13.40;1.00;;;;;;4938212;28;20078;-68
2023/07/25 03:43:12;;;;;;;12.15;2.30;;;13.70;1.00;;;;;;4955310;28;20085;-68
2023/07/25 03:45:38;;;;;;;6.25;2.30;;;13.10;1.00;;;;;;4956440;28;20101;-68
2023/07/25 03:48:04;;;;;;;11.73;3.05;;;;;;;;;;4956410;28;20034;-68
2023/07/25 03:50:30;;;;;;;11.52;2.50;;;12.70;1.00;;;;;;4955063;28;20070;-68
2023/07/25 03:52:58;;;;;;;15.20;2.95;;;13.20;1.00;;;;;;4945745;28;20093;-69
2023/07/25 03:55:24;;;;;;;8.40;2.50;;;13.00;99.90;;;;;;4965209;28;20047;-68
2023/07/25 03:57:50;;;;;;;7.60;2.40;;;12.70;99.90;;;;;;4956826;28;20034;-68
2023/07/25 04:00:16;;;;;;;9.45;2.30;;;13.60;99.90;;;;;;4955639;28;20093;-68
2023/07/25 04:02:42;;;;;;;11.05;2.47;;;12.70;99.90;;;;;;4961722;28;20122;-68
2023/07/25 04:05:08;;;;;;;14.07;2.60;;;13.10;99.90;;;;;;4955695;28;20035;-68
2023/07/25 04:07:34;;;;;;;15.70;2.85;;;13.10;99.90;;;;;;4960455;28;20430;-68
2023/07/25 04:10:00;;;;;;;9.55;3.45;;;13.50;99.90;;;;;;4956015;28;20122;-68
2023/07/25 04:12:26;;;;;;;9.55;2.30;;;13.00;99.90;;;;;;4965091;28;20035;-68
2023/07/25 04:14:52;;;;;;;10.88;2.50;;;13.10;99.90;;;;;;4956454;28;20051;-68
2023/07/25 04:17:18;;;;;;;8.10;2.03;;;13.40;99.90;;;;;;4957787;28;20517;-68
2023/07/25 04:19:43;;;;;;;7.88;2.20;;;13.80;99.90;;;;;;4962675;28;20330;-68
2023/07/25 04:22:09;;;;;;;8.95;2.55;;;12.80;99.90;;;;;;4943681;29;20031;-68
2023/07/25 04:24:35;;;;;;;8.27;2.28;;;;;;;;;;4953599;28;20111;-69
2023/07/25 04:27:01;;;;;;;7.97;2.17;;;13.10;99.90;;;;;;4958400;28;20429;-69
2023/07/25 04:29:27;;;;;;;7.47;2.00;;;;;;;;;;4952397;28;20106;-69
2023/07/25 04:31:52;;;;;;;6.57;2.00;;;12.90;99.90;;;;;;4957346;28;20469;-69
2023/07/25 04:34:18;;;;;;;7.90;2.47;;;13.00;99.90;;;;;;4957298;28;20054;-68
2023/07/25 04:36:44;;;;;;;8.52;2.00;;;13.10;99.90;;;;;;4956654;28;20389;-68
2023/07/25 04:39:09;;;;;;;9.25;1.90;;;13.10;99.90;;;;;;4953947;28;20087;-69
2023/07/25 04:41:35;;;;;;;7.00;2.10;;;13.20;99.90;;;;;;4952602;28;20027;-68
2023/07/25 04:44:01;;;;;;;9.02;2.20;;;13.60;99.90;;;;;;4955958;28;20039;-68
2023/07/25 04:46:28;;;;;;;10.98;2.17;;;13.40;99.90;;;;;;4954064;28;20047;-68
2023/07/25 04:48:54;;;;;;;7.75;2.50;;;12.60;99.90;;;;;;4959319;28;20061;-68
2023/07/25 04:51:20;;;;;;;11.00;2.20;;;13.20;99.90;;;;;;4952056;28;20046;-68
2023/07/25 04:53:45;;;;;;;7.65;1.83;;;13.10;99.90;;;;;;4955234;28;20047;-68
2023/07/25 04:56:11;;;;;;;10.00;1.95;;;13.10;99.90;;;;;;4954562;28;20047;-68
2023/07/25 04:58:41;;;;;;;7.93;1.70;;;12.80;99.90;;;;;;4946835;28;20035;-69
2023/07/25 05:01:07;;;;;;;8.90;1.90;;;13.40;99.90;;;;;;4949837;28;20507;-68
2023/07/25 05:03:33;;;;;;;10.93;1.80;;;13.20;99.90;;;;;;4951011;28;20050;-67
2023/07/25 05:05:59;;;;;;;5.57;1.70;;;12.90;99.90;;;;;;4953740;28;20027;-68
2023/07/25 05:08:24;;;;;;;8.90;2.83;;;12.90;99.90;;;;;;4954351;28;20026;-67
2023/07/25 05:10:51;;;;;;;7.53;1.95;;;13.60;99.90;;;;;;4953243;28;20501;-67
2023/07/25 05:13:17;;;;;;;7.78;1.90;;;12.90;99.90;;;;;;4952756;28;20031;-68
2023/07/25 05:15:43;;;;;;;6.80;1.80;;;13.70;99.90;;;;;;4957330;28;20517;-67
2023/07/25 05:18:08;;;;;;;7.25;1.75;;;13.50;99.90;;;;;;4950700;28;20035;-68
2023/07/25 05:20:34;;;;;;;5.45;1.50;;;13.30;99.90;;;;;;4957267;28;20198;-68
2023/07/25 05:23:00;;;;;;;9.05;1.50;;;;;;;;;;4950750;28;20035;-68
2023/07/25 05:25:25;;;;;;;6.15;1.33;;;13.20;99.90;;;;;;4955046;28;20039;-69
2023/07/25 05:27:51;;;;;;;7.47;1.40;;;12.90;99.90;;;;;;4953925;28;20046;-68
2023/07/25 05:30:17;;;;;;;6.57;1.10;;;13.70;99.90;;;;;;4953785;28;20464;-68
2023/07/25 05:32:44;;;;;;;4.30;1.50;;;13.90;99.90;;;;;;4951580;28;20474;-68
2023/07/25 05:35:09;;;;;;;5.45;1.40;;;13.10;99.90;;;;;;4950105;28;20090;-68
2023/07/25 05:37:39;;;;;;;7.75;1.20;;;13.30;99.90;;;;;;4951110;28;20554;-68
2023/07/25 05:40:05;;;;;;;5.15;1.27;;;;;;;;;;4951478;28;20393;-68
2023/07/25 05:42:31;;;;;;;4.93;1.40;;;13.40;99.90;;;;;;4955902;28;20050;-68
2023/07/25 05:44:58;;;;;;;4.10;1.13;;;13.80;99.90;;;;;;4953824;28;20048;-69
2023/07/25 05:47:24;;;;;;;5.70;1.20;;;13.70;99.90;;;;;;4951653;28;20086;-69
2023/07/25 05:49:50;;;;;;;5.60;1.23;;;14.00;99.90;;;;;;4956239;28;20102;-69
2023/07/25 05:52:16;;;;;;;5.43;1.10;;;13.30;99.90;;;;;;4956147;28;20121;-69
2023/07/25 05:54:43;;;;;;;4.90;1.20;;;13.20;99.90;;;;;;4944741;28;20043;-69
2023/07/25 05:57:09;;;;;;;5.40;1.10;;;;;;;;;;4947103;28;20079;-68
2023/07/25 05:59:35;;;;;;;7.18;1.20;;;13.80;99.90;;;;;;4949616;28;20462;-68
2023/07/25 06:02:02;;;;;;;6.07;1.25;;;14.20;99.90;;;;;;4953513;28;20066;-68
2023/07/25 06:04:27;;;;;;;5.18;1.10;;;14.10;99.90;;;;;;4953078;28;20042;-68
2023/07/25 06:06:54;;;;;;;5.30;1.25;;;;;;;;;;4951388;28;20054;-69
2023/07/25 06:09:20;;;;;;;6.25;1.40;;;14.20;99.90;;;;;;4954577;28;20428;-68
2023/07/25 06:11:47;;;;;;;6.65;1.73;;;;;;;;;;4949714;28;20130;-67
2023/07/25 06:14:13;;;;;;;6.72;1.40;;;14.30;99.90;;;;;;4957493;28;20039;-68
2023/07/25 06:16:38;;;;;;;4.30;1.52;;;14.30;99.90;;;;;;4957533;28;20042;-68
2023/07/25 06:19:04;;;;;;;5.80;1.42;;;14.20;99.90;;;;;;4955150;28;20034;-67
2023/07/25 06:21:30;;;;;;;3.90;1.15;;;14.10;99.90;;;;;;4956945;28;20045;-68
2023/07/25 06:23:55;;;;;;;3.47;0.95;;;14.50;99.90;;;;;;4936307;28;20058;-68
2023/07/25 06:26:21;;;;;;;7.15;1.30;;;14.10;99.90;;;;;;4939504;28;20054;-68
2023/07/25 06:28:46;;;;;;;8.23;1.30;;;14.40;99.90;;;;;;4950483;28;20126;-68
2023/07/25 06:31:12;;;;;;;6.43;1.55;;;14.60;99.90;;;;;;4951423;28;20046;-68
2023/07/25 06:33:38;;;;;;;4.45;1.50;;;14.80;99.90;;;;;;4948208;28;20038;-70
2023/07/25 06:36:03;;;;;;;7.03;1.52;;;14.90;99.90;;;;;;4948130;28;20039;-70
2023/07/25 06:38:29;;;;;;;4.75;1.30;;;15.30;99.90;;;;;;4952915;28;20064;-70
2023/07/25 06:40:55;;;;;;;4.68;1.48;;;15.30;99.90;;;;;;4948636;28;20452;-70
2023/07/25 06:43:21;;;;;;;7.35;1.73;;;15.00;92.70;;;;;;4950498;28;20040;-70
2023/07/25 06:45:49;;;;;;;7.20;1.50;;;14.80;74.80;;;;;;4953501;28;20046;-69
2023/07/25 06:48:14;;;;;;;7.10;1.30;;;14.90;57.80;;;;;;4951084;28;20057;-69
2023/07/25 06:50:40;;;;;;;5.40;1.20;;;14.60;79.00;;;;;;4950354;28;20505;-69
2023/07/25 06:53:06;;;;;;;6.20;1.52;;;14.70;99.90;;;;;;4945039;28;20134;-69
2023/07/25 06:55:31;;;;;;;4.50;1.30;;;14.80;32.00;;;;;;4949493;28;20629;-70
2023/07/25 06:57:57;;;;;;;4.07;1.20;;;14.40;59.90;;;;;;4955725;28;20039;-71
2023/07/25 07:00:23;;;;;;;5.55;1.10;;;14.60;57.80;;;;;;4954465;28;20038;-71
2023/07/25 07:02:48;;;;;;;6.18;1.30;;;14.40;93.80;;;;;;4956882;28;20545;-71
2023/07/25 07:05:14;;;;;;;6.72;1.67;;;14.60;58.90;;;;;;4957865;28;20175;-70
2023/07/25 07:07:41;;;;;;;9.85;1.98;;;14.70;22.70;;;;;;4952587;28;20157;-70
2023/07/25 07:10:06;;;;;;;6.38;1.88;;;14.80;38.60;;;;;;4936192;28;20431;-71
2023/07/25 07:12:32;;;;;;;6.75;1.65;;;14.80;26.30;;;;;;4948965;28;20062;-71
2023/07/25 07:14:58;;;;;;;4.30;1.30;;;14.40;23.90;;;;;;4949464;28;20043;-70
2023/07/25 07:17:24;;;;;;;5.80;1.45;;;14.80;35.40;;;;;;4950083;28;20042;-70
2023/07/25 07:19:49;;;;;;;7.03;1.70;;;14.80;58.00;;;;;;4949192;28;20511;-70
2023/07/25 07:22:15;;;;;;;6.90;1.50;;;14.40;5.80;;;;;;4954009;28;20027;-71
2023/07/25 07:24:41;;;;;;;5.82;1.98;;;14.60;19.90;;;;;;4956226;28;20449;-71
2023/07/25 07:27:06;;;;;;;6.85;1.40;;;15.00;55.00;;;;;;4952293;28;20170;-71
2023/07/25 07:29:32;;;;;;;12.15;1.98;;;14.40;4.60;;;;;;4932994;28;20039;-71
2023/07/25 07:31:59;;;;;;;5.07;1.38;;;14.50;7.70;;;;;;4953540;28;20043;-71
2023/07/25 07:34:25;;;;;;;7.45;1.70;;;14.80;1.00;;;;;;4953920;28;20544;-71
2023/07/25 07:36:51;;;;;;;7.78;1.48;;;14.60;1.00;;;;;;4946949;28;20058;-71
2023/07/25 07:39:17;;;;;;;5.55;1.75;;;15.10;1.00;;;;;;4955198;28;20035;-71
2023/07/25 07:41:42;;;;;;;4.93;1.40;;;14.80;1.00;;;;;;4952503;28;21632;-70
2023/07/25 07:44:08;;;;;;;4.38;1.08;;;14.80;1.00;;;;;;4919987;28;20227;-71
2023/07/25 07:46:34;;;;;;;3.88;1.20;;;14.80;1.00;;;;;;4953602;28;20083;-71
2023/07/25 07:49:01;;;;;;;6.40;1.60;;;;;;;;;;4953724;28;20154;-70
2023/07/25 07:51:27;;;;;;;5.13;1.70;;;14.60;1.00;;;;;;4952989;28;20042;-71
2023/07/25 07:53:53;;;;;;;5.97;1.50;;;14.90;1.00;;;;;;4936813;28;20412;-71
2023/07/25 07:56:19;;;;;;;6.18;1.30;;;14.80;1.00;;;;;;4950667;28;20035;-71
2023/07/25 07:58:45;;;;;;;4.90;1.63;;;15.00;1.00;;;;;;4956020;28;20039;-71
2023/07/25 08:01:18;;;;;;;6.25;1.40;;;14.60;1.00;;;;;;4935534;28;20494;-70
2023/07/25 08:03:45;;;;;;;5.97;1.38;;;14.80;99.90;;;;;;4952787;28;20185;-71
2023/07/25 08:06:11;;;;;;;6.70;1.55;;;;;;;;;;4952763;28;20431;-71
2023/07/25 08:08:37;;;;;;;4.90;1.42;;;15.10;99.90;;;;;;4955569;28;20035;-71
2023/07/25 08:11:03;;;;;;;4.13;1.30;;;15.20;99.90;;;;;;4953752;28;20118;-71
2023/07/25 08:13:29;;;;;;;5.05;1.10;;;15.20;99.90;;;;;;4944254;28;20174;-71
2023/07/25 08:15:55;;;;;;;4.25;1.17;;;15.10;99.90;;;;;;4949022;28;20413;-71
2023/07/25 08:18:20;;;;;;;8.10;1.52;;;15.60;99.90;;;;;;4952302;28;20049;-71
2023/07/25 08:20:46;;;;;;;3.25;1.05;;;15.30;99.90;;;;;;4942557;28;20036;-71
2023/07/25 08:23:12;;;;;;;5.55;1.33;;;14.90;99.90;;;;;;4946951;28;20051;-71
2023/07/25 08:25:39;;;;;;;7.65;1.42;;;15.40;1.00;;;;;;4947246;28;20038;-71
2023/07/25 08:28:05;;;;;;;6.80;1.10;;;15.60;1.00;;;;;;4954511;28;20087;-71
2023/07/25 08:30:31;;;;;;;6.22;1.17;;;;;;;;;;4950874;28;20047;-71
2023/07/25 08:32:57;;;;;;;5.72;1.38;;;15.80;1.00;;;;;;4950489;28;20042;-71
2023/07/25 08:35:23;;;;;;;4.75;1.20;;;15.30;1.00;;;;;;4951442;28;20173;-71
2023/07/25 08:37:49;;;;;;;4.82;1.13;;;15.20;1.00;;;;;;4946331;28;20428;-71
2023/07/25 08:40:15;;;;;;;5.78;1.50;;;15.30;1.00;;;;;;4953639;28;20090;-70
2023/07/25 08:42:46;;;;;;;6.47;1.55;;;15.30;1.00;;;;;;4956696;28;20432;-66
2023/07/25 08:45:12;;;;;;;6.38;1.35;;;15.20;1.00;;;;;;4954439;28;20095;-66
2023/07/25 08:47:40;;;;;;;5.32;1.20;;;15.70;1.00;;;;;;4952107;28;20031;-66
2023/07/25 08:50:15;;;;;;;6.57;1.30;;;15.30;1.00;;;;;;4957644;28;20035;-66
2023/07/25 08:52:43;;;;;;;;;;;15.60;1.00;;;;;;4948674;28;20051;-66
2023/07/25 08:55:10;;;;;;;5.47;1.33;;;15.40;99.90;;;;;;4955827;28;19918;-66
2023/07/25 08:57:36;;;;;;;6.10;1.65;;;15.20;1.00;;;;;;4947750;28;20058;-66
2023/07/25 09:00:02;;;;;;;7.85;1.30;;;15.30;99.90;;;;;;4959643;28;20034;-66
2023/07/25 09:02:28;;;;;;;6.05;1.20;;;15.30;99.90;;;;;;4951050;28;20043;-66
2023/07/25 09:04:55;;;;;;;5.65;1.23;;;15.30;99.90;;;;;;4944832;28;20118;-66
2023/07/25 09:07:20;;;;;;;6.00;1.33;;;15.40;99.90;;;;;;4958740;28;20382;-66
2023/07/25 09:09:46;;;;;;;7.88;1.25;;;15.20;99.90;;;;;;4959182;28;20046;-66
2023/07/25 09:12:12;;;;;;;3.70;1.02;;;15.70;99.90;;;;;;4950301;28;20036;-66
2023/07/25 09:14:39;;;;;;;10.55;1.75;;;15.90;99.90;;;;;;4959346;28;20509;-65
2023/07/25 09:17:06;;;;;;;5.63;1.45;;;15.50;99.90;;;;;;4951740;28;20040;-66
2023/07/25 09:19:32;;;;;;;5.28;1.65;;;16.10;99.90;;;;;;4950542;28;20027;-66
2023/07/25 09:21:58;;;;;;;5.22;1.25;;;16.00;99.90;;;;;;4957962;28;20146;-65
2023/07/25 09:24:36;;;;;;;5.35;1.30;;;15.80;99.90;;;;;;4951705;28;20094;-66
2023/07/25 09:27:03;;;;;;;4.68;1.00;;;15.80;99.90;;;;;;4953278;28;20253;-66
2023/07/25 09:29:30;;;;;;;5.20;1.13;;;15.70;99.90;;;;;;4947052;28;20461;-66
2023/07/25 09:31:58;;;;;;;5.18;1.48;;;16.50;99.90;;;;;;4956490;28;20043;-66
2023/07/25 09:34:25;;;;;;;6.03;1.33;;;16.00;99.90;;;;;;4950689;28;20105;-66
2023/07/25 09:36:51;;;;;;;5.55;1.30;;;16.30;99.90;;;;;;4948574;28;20102;-65
2023/07/25 09:39:17;;;;;;;4.30;1.33;;;16.20;99.90;;;;;;4960127;28;20035;-66
2023/07/25 09:41:45;;;;;;;3.42;1.10;;;16.30;99.90;;;;;;4952340;28;20160;-66
2023/07/25 09:44:11;;;;;;;6.93;1.20;;;16.50;99.90;;;;;;4951048;28;20048;-66
2023/07/25 09:46:37;;;;;;;8.95;1.20;;;16.60;28.30;;;;;;4958253;28;20093;-66
2023/07/25 09:49:04;;;;;;;4.72;1.73;;;16.70;35.50;;;;;;4945578;28;20047;-66
2023/07/25 09:51:30;;;;;;;8.10;1.48;;;17.00;41.20;;;;;;4950782;28;20090;-67
2023/07/25 09:53:55;;;;;;;4.68;1.30;;;16.70;81.50;;;;;;4962969;28;20163;-67
2023/07/25 09:56:26;;;;;;;4.38;1.15;;;17.00;99.90;;;;;;4957885;28;20405;-66
2023/07/25 09:58:53;;;;;;;3.95;1.27;;;17.40;7.00;;;;;;4964879;28;20131;-66
2023/07/25 10:01:18;;;;;;;7.15;1.48;;;17.50;1.00;;;;;;4944908;28;20508;-66
2023/07/25 10:03:45;;;;;;;6.82;1.50;;;17.50;1.00;;;;;;4948053;28;20410;-66
2023/07/25 10:06:14;;;;;;;4.53;1.40;;;16.90;1.00;;;;;;4963992;28;20081;-67
2023/07/25 10:08:42;;;;;;;4.57;1.30;;;17.20;1.00;;;;;;4948788;28;20043;-66
2023/07/25 10:11:09;;;;;;;4.00;1.23;;;16.90;1.00;;;;;;4953725;28;20062;-66
2023/07/25 10:13:35;;;;;;;3.35;1.20;;;17.20;1.00;;;;;;4950411;28;20053;-66
2023/07/25 10:16:03;;;;;;;5.60;1.35;;;16.80;1.00;;;;;;4958150;28;20040;-66
2023/07/25 10:18:33;;;;;;;6.63;1.60;;;17.00;99.90;;;;;;4945004;28;20039;-66
2023/07/25 10:20:59;;;;;;;3.83;1.13;;;17.60;99.90;;;;;;4956722;28;20043;-67
2023/07/25 10:23:35;;;;;;;5.32;1.55;;;17.10;1.00;;;;;;4950942;28;20050;-66
2023/07/25 10:26:14;;;;;;;5.68;1.40;;;17.40;1.00;;;;;;4949493;28;20050;-66
2023/07/25 10:28:40;;;;;;;5.95;1.38;;;17.30;1.00;;;;;;4951781;28;20524;-66
2023/07/25 10:31:22;;;;;;;5.15;1.23;;;17.30;1.00;;;;;;4951486;28;20058;-65
2023/07/25 10:34:02;;;;;;;5.60;1.60;;;17.10;1.00;;;;;;4959488;28;20070;-67
2023/07/25 10:36:27;;;;;;;7.60;1.42;;;17.30;1.00;;;;;;4947862;28;20049;-65
2023/07/25 10:39:04;;;;;;;4.63;1.15;;;17.10;1.00;;;;;;4960312;28;20039;-66
2023/07/25 10:41:30;;;;;;;7.45;1.38;;;17.50;1.00;;;;;;4935385;28;20437;-66
2023/07/25 10:43:59;;;;;;;4.43;1.23;;;17.50;1.00;;;;;;4945865;28;20122;-66
2023/07/25 10:46:33;;;;;;;4.35;1.10;;;18.10;99.90;;;;;;4967657;28;20054;-66
2023/07/25 10:49:04;;;;;;;6.65;1.77;;;18.30;99.90;;;;;;4933828;28;20039;-64
2023/07/25 10:51:53;;;;;;;5.13;1.40;;;18.10;99.90;;;;;;4939719;28;20409;-66
2023/07/25 10:54:21;;;;;;;7.03;1.25;;;17.40;99.90;;;;;;4949721;28;20043;-66
2023/07/25 10:57:06;;;;;;;4.05;1.00;;;;;;;;;;4954388;28;20039;-66
2023/07/25 10:59:31;;;;;;;;;;;17.50;99.90;;;;;;4944278;28;20087;-66
2023/07/25 11:01:57;;;;;;;4.78;1.42;;;17.20;99.90;;;;;;4950507;28;20013;-66
2023/07/25 11:04:24;;;;;;;2.97;0.90;;;18.00;99.90;;;;;;4950799;28;20036;-65
2023/07/25 11:06:52;;;;;;;4.57;1.20;;;17.50;99.90;;;;;;4943437;28;20513;-66
2023/07/25 11:09:20;;;;;;;4.60;1.38;;;17.50;99.90;;;;;;4940034;28;20048;-66
2023/07/25 11:11:47;;;;;;;4.00;1.05;;;17.40;99.90;;;;;;4921162;28;20051;-66
2023/07/25 11:14:15;;;;;;;4.28;1.20;;;17.50;99.90;;;;;;4953945;28;20046;-66
2023/07/25 11:16:42;;;;;;;5.75;1.50;;;17.60;99.90;;;;;;4962072;28;20070;-65
2023/07/25 11:19:09;;;;;;;5.93;1.48;;;17.50;99.90;;;;;;4947408;28;20123;-65
2023/07/25 11:21:43;;;;;;;4.32;1.20;;;17.70;99.90;;;;;;4935437;28;20328;-66
2023/07/25 11:24:11;;;;;;;6.57;1.17;;;17.60;99.90;;;;;;4954952;28;20031;-65
2023/07/25 11:26:37;;;;;;;4.25;1.40;;;18.50;24.10;;;;;;4960930;28;20074;-65
2023/07/25 11:29:08;;;;;;;4.60;1.38;;;18.30;1.00;;;;;;4954670;28;20054;-66
2023/07/25 11:31:36;;;;;;;5.38;1.10;;;18.50;1.00;;;;;;4948678;28;20502;-65
2023/07/25 11:34:15;;;;;;;6.18;1.58;;;17.50;1.00;;;;;;4944412;28;20051;-66
2023/07/25 11:36:42;;;;;;;3.72;1.17;;;17.40;99.90;;;;;;4941138;28;20058;-66
2023/07/25 11:39:09;;;;;;;3.67;1.00;;;17.80;99.90;;;;;;4958411;28;20446;-65
2023/07/25 11:41:36;;;;;;;6.00;1.50;;;17.20;99.90;;;;;;4945690;28;20374;-65
2023/07/25 11:44:14;;;;;;;5.53;1.20;;;17.40;99.90;;;;;;4955574;28;20122;-65
2023/07/25 11:46:43;;;;;;;7.57;2.25;;;16.90;99.90;;;;;;4943971;28;20349;-66
2023/07/25 11:49:10;;;;;;;7.45;1.48;;;17.10;99.90;;;;;;4950680;28;20043;-65
2023/07/25 11:51:37;;;;;;;5.80;1.40;;;17.40;99.90;;;;;;4943421;28;20117;-66
2023/07/25 11:54:04;;;;;;;5.75;1.10;;;17.40;99.90;;;;;;4940751;28;20052;-66
2023/07/25 11:56:32;;;;;;;4.30;1.25;;;17.50;99.90;;;;;;4926606;28;20040;-66
2023/07/25 11:58:59;;;;;;;4.05;1.30;;;17.80;99.90;;;;;;4946857;28;20050;-66
2023/07/25 12:01:33;;;;;;;7.03;1.45;;;17.80;99.90;;;;;;4947663;28;20043;-66
2023/07/25 12:04:02;;;;;;;3.80;1.20;;;17.00;99.90;;;;;;4948659;28;20043;-66
2023/07/25 12:06:32;;;;;;;4.10;1.23;;;17.00;99.90;;;;;;4937020;28;20047;-66
2023/07/25 12:09:00;;;;;;;4.78;1.55;;;17.30;97.00;;;;;;4948583;28;20509;-66
2023/07/25 12:11:26;;;;;;;5.65;1.30;;;17.70;99.90;;;;;;4955577;28;20071;-65
2023/07/25 12:13:56;;;;;;;10.18;2.63;;;18.00;99.90;;;;;;4954479;28;20509;-67
2023/07/25 12:16:34;;;;;;;6.05;1.75;;;17.40;99.90;;;;;;4953889;28;20054;-65
2023/07/25 12:19:08;;;;;;;5.57;1.23;;;17.60;99.90;;;;;;4949643;28;20390;-66
2023/07/25 12:21:37;;;;;;;4.82;1.20;;;17.50;99.90;;;;;;4956867;28;21725;-66
2023/07/25 12:24:08;;;;;;;6.03;1.10;;;17.80;99.90;;;;;;4949702;28;20050;-66
2023/07/25 12:26:54;;;;;;;4.30;1.30;;;18.00;99.90;;;;;;4958620;28;20073;-65
2023/07/25 12:29:21;;;;;;;5.25;1.30;;;17.90;99.90;;;;;;4925216;28;20051;-66
2023/07/25 12:31:48;;;;;;;3.90;1.40;;;17.50;99.90;;;;;;4954295;28;20043;-65
2023/07/25 12:34:18;;;;;;;4.70;1.13;;;17.60;99.90;;;;;;4954767;28;20045;-66
2023/07/25 12:36:45;;;;;;;4.60;1.17;;;18.10;99.90;;;;;;4947311;28;20094;-66
2023/07/25 12:39:11;;;;;;;6.60;1.05;;;17.80;99.90;;;;;;4952878;28;20031;-66
2023/07/25 12:41:37;;;;;;;3.83;1.02;;;17.70;99.90;;;;;;4953949;28;20033;-66
2023/07/25 12:44:03;;;;;;;3.97;1.33;;;17.70;21.20;;;;;;4953970;28;20035;-66
2023/07/25 12:46:29;;;;;;;2.97;1.00;;;18.40;35.70;;;;;;4952306;28;20505;-66
2023/07/25 12:48:55;;;;;;;3.30;0.90;;;18.10;1.00;;;;;;4953487;28;20043;-66
2023/07/25 12:51:21;;;;;;;8.23;1.13;;;18.10;1.00;;;;;;4955753;28;20039;-66
2023/07/25 12:53:47;;;;;;;4.68;1.02;;;19.80;99.90;;;;;;4945957;28;20054;-66